Time;durP1;ratioP1;P1;durP2;ratioP2;P2;SDS_P1;SDS_P2;PMS_P1;PMS_P2;Temp;Humidity;BMP_temperature;BMP_pressure;BME280_temperature;BME280_humidity;BME280_pressure;Samples;Min_cycle;Max_cycle;Signal;HPM_P1;HPM_P2
2022/07/15 00:00:17;;;;;;;;;;;13.00;99.90;;;;;;6216532;23;19962;-69
2022/07/15 00:02:43;;;;;;;;;;;13.00;99.90;;;;;;6216565;23;19930;-69
2022/07/15 00:05:08;;;;;;;;;;;13.00;99.90;;;;;;6216551;23;20218;-70
2022/07/15 00:07:34;;;;;;;;;;;12.90;99.90;;;;;;6216421;23;19923;-69
2022/07/15 00:10:15;;;;;;;;;;;13.00;99.90;;;;;;6216561;23;20253;-69
2022/07/15 00:12:43;;;;;;;;;;;13.00;99.90;;;;;;6189988;23;19919;-70
2022/07/15 00:15:09;;;;;;;;;;;13.00;99.90;;;;;;6189719;23;19916;-68
2022/07/15 00:17:35;;;;;;;;;;;13.00;99.90;;;;;;6216404;23;20296;-69
2022/07/15 00:20:01;;;;;;;;;;;13.00;99.90;;;;;;6216483;23;19974;-69
2022/07/15 00:22:26;;;;;;;;;;;13.00;99.90;;;;;;6190027;23;19916;-69
2022/07/15 00:24:52;;;;;;;;;;;13.00;99.90;;;;;;6189866;23;20329;-69
2022/07/15 00:27:17;;;;;;;;;;;13.10;99.90;;;;;;6217415;23;20340;-70
2022/07/15 00:29:43;;;;;;;;;;;13.10;99.90;;;;;;6192010;23;19966;-70
2022/07/15 00:32:09;;;;;;;;;;;13.10;99.90;;;;;;6218511;23;19947;-69
2022/07/15 00:34:34;;;;;;;;;;;13.20;99.90;;;;;;6218495;23;19916;-67
2022/07/15 00:37:00;;;;;;;;;;;13.20;99.90;;;;;;6218869;23;20318;-70
2022/07/15 00:39:25;;;;;;;;;;;13.20;99.90;;;;;;6218428;23;19916;-69
2022/07/15 00:41:51;;;;;;;;;;;13.10;99.90;;;;;;6218324;23;19915;-70
2022/07/15 00:44:17;;;;;;;;;;;13.10;99.90;;;;;;6218194;23;19919;-69
2022/07/15 00:46:43;;;;;;;;;;;13.20;99.90;;;;;;6191653;23;20393;-71
2022/07/15 00:49:09;;;;;;;;;;;13.20;99.90;;;;;;6218349;23;19978;-69
2022/07/15 00:51:35;;;;;;;;;;;12.40;99.90;;;;;;6191698;23;19916;-71
2022/07/15 00:54:02;;;;;;;;;;;13.30;99.90;;;;;;6218259;23;19920;-70
2022/07/15 00:56:30;;;;;;;;;;;13.20;99.90;;;;;;6218315;23;19982;-69
2022/07/15 00:58:57;;;;;;;;;;;13.20;99.90;;;;;;6218361;23;19916;-69
2022/07/15 01:01:22;;;;;;;;;;;13.20;99.90;;;;;;6218112;23;20388;-70
2022/07/15 01:03:48;;;;;;;;;;;13.20;99.90;;;;;;6191615;23;19955;-71
2022/07/15 01:06:13;;;;;;;;;;;13.40;99.90;;;;;;6218277;23;19955;-71
2022/07/15 01:08:39;;;;;;;;;;;13.20;99.90;;;;;;6217966;23;19915;-71
2022/07/15 01:11:05;;;;;;;;;;;13.30;99.90;;;;;;6218174;23;19923;-69
2022/07/15 01:13:30;;;;;;;;;;;13.20;99.90;;;;;;6218101;23;20233;-69
2022/07/15 01:15:56;;;;;;;;;;;13.20;99.90;;;;;;6218140;23;19922;-69
2022/07/15 01:18:22;;;;;;;;;;;13.20;99.90;;;;;;6218021;23;19920;-71
2022/07/15 01:20:47;;;;;;;;;;;13.30;99.90;;;;;;6190803;23;19923;-70
2022/07/15 01:23:13;;;;;;;;;;;13.30;99.90;;;;;;6190977;23;19915;-71
2022/07/15 01:25:39;;;;;;;;;;;13.30;99.90;;;;;;6217956;23;19947;-69
2022/07/15 01:28:06;;;;;;;;;;;13.20;99.90;;;;;;6217861;23;19916;-69
2022/07/15 01:30:31;;;;;;;;;;;13.60;99.90;;;;;;6217935;23;19920;-69
2022/07/15 01:32:57;;;;;;;;;;;13.30;99.90;;;;;;6217917;23;20002;-68
2022/07/15 01:35:23;;;;;;;;;;;13.20;99.90;;;;;;6217929;23;19915;-69
2022/07/15 01:37:49;;;;;;;;;;;13.20;99.90;;;;;;6190810;23;20237;-69
2022/07/15 01:40:14;;;;;;;;;;;13.20;99.90;;;;;;6217735;23;19916;-70
2022/07/15 01:42:40;;;;;;;;;;;13.20;99.90;;;;;;6217404;23;19920;-70
2022/07/15 01:45:06;;;;;;;;;;;14.60;99.90;;;;;;6217915;23;19916;-69
2022/07/15 01:47:32;;;;;;;;;;;13.20;99.90;;;;;;6217569;23;20383;-68
2022/07/15 01:49:58;;;;;;;;;;;13.20;99.90;;;;;;6217857;23;19916;-69
2022/07/15 01:52:24;;;;;;;;;;;13.20;99.90;;;;;;6190749;23;19915;-68
2022/07/15 01:54:50;;;;;;;;;;;13.30;99.90;;;;;;6217751;23;19916;-69
2022/07/15 01:57:16;;;;;;;;;;;13.20;99.90;;;;;;6217745;23;19920;-68
2022/07/15 01:59:41;;;;;;;;;;;13.20;99.90;;;;;;6191208;23;19916;-70
2022/07/15 02:02:07;;;;;;;;;;;13.20;99.90;;;;;;6217582;23;20010;-69
2022/07/15 02:04:32;;;;;;;;;;;13.20;99.90;;;;;;6191024;23;20042;-71
2022/07/15 02:06:58;;;;;;;;;;;13.20;99.90;;;;;;6191016;23;20340;-69
2022/07/15 02:09:24;;;;;;;;;;;13.20;99.90;;;;;;6191050;23;20240;-70
2022/07/15 02:11:49;;;;;;;;;;;13.20;99.90;;;;;;6217732;23;19915;-70
2022/07/15 02:14:15;;;;;;;;;;;13.20;99.90;;;;;;6217234;23;20249;-69
2022/07/15 02:16:40;;;;;;;;;;;13.20;99.90;;;;;;6217448;23;19919;-69
2022/07/15 02:19:08;;;;;;;;;;;13.30;99.90;;;;;;6217508;23;19916;-69
2022/07/15 02:21:34;;;;;;;;;;;13.20;99.90;;;;;;6190835;23;19920;-70
2022/07/15 02:23:59;;;;;;;;;;;13.30;99.90;;;;;;6190689;23;19922;-69
2022/07/15 02:26:25;;;;;;;;;;;13.30;99.90;;;;;;6217473;23;19990;-70
2022/07/15 02:28:51;;;;;;;;;;;13.30;99.90;;;;;;6217291;23;20211;-70
2022/07/15 02:31:17;;;;;;;;;;;13.20;99.90;;;;;;6190852;23;19970;-70
2022/07/15 02:33:42;;;;;;;;;;;13.20;99.90;;;;;;6217372;23;19951;-69
2022/07/15 02:36:08;;;;;;;;;;;13.30;99.90;;;;;;6190767;23;19920;-70
2022/07/15 02:38:34;;;;;;;;;;;13.10;99.90;;;;;;6217209;23;19915;-70
2022/07/15 02:40:59;;;;;;;;;;;13.10;99.90;;;;;;6190444;23;19923;-70
2022/07/15 02:43:25;;;;;;;;;;;13.10;99.90;;;;;;6216952;23;19922;-70
2022/07/15 02:45:50;;;;;;;;;;;13.10;99.90;;;;;;6217169;23;19920;-69
2022/07/15 02:48:16;;;;;;;;;;;13.20;99.90;;;;;;6217158;23;19923;-69
2022/07/15 02:50:41;;;;;;;;;;;13.10;99.90;;;;;;6217092;23;20249;-71
2022/07/15 02:53:08;;;;;;;;;;;13.10;99.90;;;;;;6217108;23;19920;-70
2022/07/15 02:55:33;;;;;;;;;;;13.00;99.90;;;;;;6216630;23;20321;-69
2022/07/15 02:57:59;;;;;;;;;;;13.10;99.90;;;;;;6216788;23;19954;-69
2022/07/15 03:00:25;;;;;;;;;;;13.20;99.90;;;;;;6217180;23;19986;-71
2022/07/15 03:02:51;;;;;;;;;;;13.10;99.90;;;;;;6217147;23;19919;-70
2022/07/15 03:05:17;;;;;;;;;;;13.00;99.90;;;;;;6217488;23;20229;-70
2022/07/15 03:07:43;;;;;;;;;;;13.00;99.90;;;;;;6216803;23;19916;-70
2022/07/15 03:10:09;;;;;;;;;;;13.20;99.90;;;;;;6217061;23;19916;-69
2022/07/15 03:12:35;;;;;;;;;;;13.00;99.90;;;;;;6216917;23;19915;-69
2022/07/15 03:15:01;;;;;;;;;;;13.00;99.90;;;;;;6190210;23;19973;-70
2022/07/15 03:17:26;;;;;;;;;;;12.90;99.90;;;;;;6217034;23;19923;-71
2022/07/15 03:19:52;;;;;;;;;;;12.90;99.90;;;;;;6216889;23;19923;-69
2022/07/15 03:22:17;;;;;;;;;;;12.90;99.90;;;;;;6216901;23;19935;-71
2022/07/15 03:24:43;;;;;;;;;;;12.90;99.90;;;;;;6190413;23;19947;-69
2022/07/15 03:27:09;;;;;;;;;;;13.10;99.90;;;;;;6190210;23;19916;-69
2022/07/15 03:29:35;;;;;;;;;;;12.90;99.90;;;;;;6216787;23;20352;-69
2022/07/15 03:32:01;;;;;;;;;;;12.80;99.90;;;;;;6216783;23;19923;-69
2022/07/15 03:34:27;;;;;;;;;;;12.80;99.90;;;;;;6190327;23;19915;-70
2022/07/15 03:36:53;;;;;;;;;;;12.80;99.90;;;;;;6190094;23;20378;-70
2022/07/15 03:39:19;;;;;;;;;;;12.70;99.90;;;;;;6216797;23;19923;-71
2022/07/15 03:41:46;;;;;;;;;;;12.70;99.90;;;;;;6216743;23;19939;-69
2022/07/15 03:44:13;;;;;;;;;;;12.70;99.90;;;;;;6216467;23;19920;-69
2022/07/15 03:46:39;;;;;;;;;;;12.60;99.90;;;;;;6216624;23;20257;-71
2022/07/15 03:49:04;;;;;;;;;;;12.60;99.90;;;;;;6216683;23;19916;-70
2022/07/15 03:51:30;;;;;;;;;;;12.50;99.90;;;;;;6190110;23;19916;-69
2022/07/15 03:53:58;;;;;;;;;;;12.60;99.90;;;;;;6189963;23;19931;-71
2022/07/15 03:56:23;;;;;;;;;;;12.50;99.90;;;;;;6216689;23;19922;-69
2022/07/15 03:58:49;;;;;;;;;;;12.50;99.90;;;;;;6216585;23;19916;-69
2022/07/15 04:01:14;;;;;;;;;;;12.50;99.90;;;;;;6216301;23;19938;-69
2022/07/15 04:03:40;;;;;;;;;;;12.50;99.90;;;;;;6189776;23;20222;-70
2022/07/15 04:06:05;;;;;;;;;;;12.60;99.90;;;;;;6216551;23;20249;-69
2022/07/15 04:08:31;;;;;;;;;;;12.60;99.90;;;;;;6216357;23;19920;-69
2022/07/15 04:10:56;;;;;;;;;;;12.60;99.90;;;;;;6216532;23;19916;-69
2022/07/15 04:13:22;;;;;;;;;;;12.60;99.90;;;;;;6189897;23;19927;-69
2022/07/15 04:15:48;;;;;;;;;;;12.60;99.90;;;;;;6216477;23;19916;-69
2022/07/15 04:18:13;;;;;;;;;;;12.50;99.90;;;;;;6216113;23;19916;-69
2022/07/15 04:20:39;;;;;;;;;;;12.50;99.90;;;;;;6216845;23;19951;-70
2022/07/15 04:23:04;;;;;;;;;;;12.50;99.90;;;;;;6216304;23;19916;-69
2022/07/15 04:25:30;;;;;;;;;;;12.50;99.90;;;;;;6216436;23;19920;-69
2022/07/15 04:27:56;;;;;;;;;;;12.50;99.90;;;;;;6216341;23;19923;-69
2022/07/15 04:30:21;;;;;;;;;;;12.70;99.90;;;;;;6189920;23;19994;-70
2022/07/15 04:32:47;;;;;;;;;;;12.50;99.90;;;;;;6189849;23;19916;-70
2022/07/15 04:35:12;;;;;;;;;;;12.50;99.90;;;;;;6189809;23;19924;-69
2022/07/15 04:37:38;;;;;;;;;;;12.50;99.90;;;;;;6216232;23;19915;-70
2022/07/15 04:40:07;;;;;;;;;;;12.50;99.90;;;;;;6216316;23;19937;-69
2022/07/15 04:42:32;;;;;;;;;;;12.50;99.90;;;;;;6215950;23;20329;-69
2022/07/15 04:44:58;;;;;;;;;;;12.60;99.90;;;;;;6216233;23;19923;-69
2022/07/15 04:47:23;;;;;;;;;;;12.60;99.90;;;;;;6189576;23;19970;-69
2022/07/15 04:52:33;;;;;;;;;;;12.60;99.90;;;;;;6216105;23;19982;-70
2022/07/15 04:54:58;;;;;;;;;;;12.60;99.90;;;;;;6216234;23;20317;-70
2022/07/15 04:57:24;;;;;;;;;;;12.60;99.90;;;;;;6216307;23;19920;-69
2022/07/15 04:59:50;;;;;;;;;;;12.70;99.90;;;;;;6216359;23;19922;-69
2022/07/15 05:02:16;;;;;;;;;;;12.70;99.90;;;;;;6189962;23;19923;-70
2022/07/15 05:04:42;;;;;;;;;;;12.70;99.90;;;;;;6216160;23;19916;-69
2022/07/15 05:07:08;;;;;;;;;;;12.80;99.90;;;;;;6189501;23;19943;-68
2022/07/15 05:09:33;;;;;;;;;;;12.70;99.90;;;;;;6216354;23;19916;-69
2022/07/15 05:11:59;;;;;;;;;;;12.70;99.90;;;;;;6216318;23;20341;-70
2022/07/15 05:14:24;;;;;;;;;;;12.80;99.90;;;;;;6218089;23;19916;-69
2022/07/15 05:16:50;;;;;;;;;;;12.90;99.90;;;;;;6191465;23;19916;-70
2022/07/15 05:19:15;;;;;;;;;;;12.80;99.90;;;;;;6218076;23;19915;-69
2022/07/15 05:21:41;;;;;;;;;;;12.50;99.90;;;;;;6166752;23;19995;-69
2022/07/15 05:24:07;;;;;;;;;;;12.90;99.90;;;;;;6217924;23;19923;-69
2022/07/15 05:26:32;;;;;;;;;;;12.90;99.90;;;;;;6218112;23;20329;-69
2022/07/15 05:28:58;;;;;;;;;;;12.90;99.90;;;;;;6217861;23;20245;-69
2022/07/15 05:31:23;;;;;;;;;;;12.90;99.90;;;;;;6218022;23;19922;-69
2022/07/15 05:33:49;;;;;;;;;;;13.00;99.90;;;;;;6217614;23;20368;-68
2022/07/15 05:36:15;;;;;;;;;;;12.90;99.90;;;;;;6217899;23;19923;-70
2022/07/15 05:38:41;;;;;;;;;;;12.90;99.90;;;;;;6217767;23;19923;-70
2022/07/15 05:41:07;;;;;;;;;;;13.00;99.90;;;;;;6217940;23;20364;-68
2022/07/15 05:43:33;;;;;;;;;;;12.90;99.90;;;;;;6217311;23;19939;-71
2022/07/15 05:45:58;;;;;;;;;;;13.00;99.90;;;;;;6217757;23;19923;-68
2022/07/15 05:48:25;;;;;;;;;;;13.00;99.90;;;;;;6217660;23;19978;-69
2022/07/15 05:50:50;;;;;;;;;;;13.10;99.90;;;;;;6217645;23;20292;-71
2022/07/15 05:53:16;;;;;;;;;;;13.10;99.90;;;;;;6217725;23;19915;-70
2022/07/15 05:55:41;;;;;;;;;;;13.20;99.90;;;;;;6217767;23;19916;-70
2022/07/15 05:58:07;;;;;;;;;;;13.20;99.90;;;;;;6217689;23;19923;-69
2022/07/15 06:00:33;;;;;;;;;;;13.30;99.90;;;;;;6217735;23;19916;-70
2022/07/15 06:02:59;;;;;;;;;;;13.40;99.90;;;;;;6191111;23;19916;-69
2022/07/15 06:05:24;;;;;;;;;;;13.40;99.90;;;;;;6191211;23;20227;-69
2022/07/15 06:07:50;;;;;;;;;;;13.50;99.90;;;;;;6217562;23;19945;-71
2022/07/15 06:10:15;;;;;;;;;;;13.50;99.90;;;;;;6217591;23;19923;-69
2022/07/15 06:12:41;;;;;;;;;;;13.60;99.90;;;;;;6191059;23;19920;-70
2022/07/15 06:15:07;;;;;;;;;;;13.70;99.90;;;;;;6217675;23;19915;-69
2022/07/15 06:17:33;;;;;;;;;;;13.70;99.90;;;;;;6217512;23;19930;-68
2022/07/15 06:19:59;;;;;;;;;;;13.80;99.90;;;;;;6217556;23;19916;-69
2022/07/15 06:22:25;;;;;;;;;;;13.90;99.90;;;;;;6217407;23;19985;-69
2022/07/15 06:24:50;;;;;;;;;;;13.90;99.90;;;;;;6217275;23;20387;-70
2022/07/15 06:27:16;;;;;;;;;;;13.90;99.90;;;;;;6216060;23;19920;-71
2022/07/15 06:29:41;;;;;;;;;;;14.00;99.90;;;;;;6217378;23;19916;-69
2022/07/15 06:32:07;;;;;;;;;;;14.10;99.90;;;;;;6217240;23;19990;-70
2022/07/15 06:34:33;;;;;;;;;;;12.90;99.90;;;;;;6190502;23;19920;-71
2022/07/15 06:36:58;;;;;;;;;;;14.20;99.90;;;;;;6217143;23;19958;-69
2022/07/15 06:39:24;;;;;;;;;;;14.20;99.90;;;;;;6217219;23;19995;-70
2022/07/15 06:41:50;;;;;;;;;;;14.30;99.90;;;;;;6217303;23;20333;-69
2022/07/15 06:44:15;;;;;;;;;;;14.40;99.90;;;;;;6217195;23;19916;-69
2022/07/15 06:46:41;;;;;;;;;;;14.70;99.90;;;;;;6216974;23;19926;-70
2022/07/15 06:49:07;;;;;;;;;;;14.60;99.90;;;;;;6217023;23;19916;-69
2022/07/15 06:51:32;;;;;;;;;;;14.70;99.90;;;;;;6217458;23;19916;-71
2022/07/15 06:53:58;;;;;;;;;;;14.90;99.90;;;;;;6217037;23;20329;-69
2022/07/15 06:56:24;;;;;;;;;;;15.10;99.90;;;;;;6217041;23;19916;-70
2022/07/15 06:58:49;;;;;;;;;;;15.40;99.90;;;;;;6190300;23;19923;-70
2022/07/15 07:01:15;;;;;;;;;;;15.20;99.90;;;;;;6217028;23;19922;-69
2022/07/15 07:03:40;;;;;;;;;;;15.20;99.90;;;;;;6217014;23;19959;-71
2022/07/15 07:06:06;;;;;;;;;;;15.30;99.90;;;;;;6190418;23;19916;-70
2022/07/15 07:08:32;;;;;;;;;;;15.30;99.90;;;;;;6217251;23;19916;-69
2022/07/15 07:10:57;;;;;;;;;;;15.30;99.90;;;;;;6216505;23;20321;-70
2022/07/15 07:13:23;;;;;;;;;;;15.30;99.90;;;;;;6216874;23;19927;-70
2022/07/15 07:15:49;;;;;;;;;;;15.30;99.90;;;;;;6216897;23;19919;-69
2022/07/15 07:18:15;;;;;;;;;;;15.40;99.90;;;;;;6216827;23;20340;-69
2022/07/15 07:20:43;;;;;;;;;;;15.30;99.90;;;;;;6216889;23;19920;-69
2022/07/15 07:23:09;;;;;;;;;;;15.40;99.90;;;;;;6216706;23;19920;-69
2022/07/15 07:25:35;;;;;;;;;;;15.40;99.90;;;;;;6216898;23;20230;-70
2022/07/15 07:28:03;;;;;;;;;;;15.40;99.90;;;;;;6216640;23;19935;-71
2022/07/15 07:30:31;;;;;;;;;;;15.30;99.90;;;;;;6216815;23;19916;-69
2022/07/15 07:32:57;;;;;;;;;;;15.30;99.90;;;;;;6216753;23;19922;-70
2022/07/15 07:35:23;;;;;;;;;;;15.20;99.90;;;;;;6190159;23;19947;-71
2022/07/15 07:37:49;;;;;;;;;;;15.30;99.90;;;;;;6216395;23;19915;-70
2022/07/15 07:40:16;;;;;;;;;;;15.20;99.90;;;;;;6216707;23;20245;-71
2022/07/15 07:42:42;;;;;;;;;;;15.20;99.90;;;;;;6216433;23;20395;-70
2022/07/15 07:45:08;;;;;;;;;;;15.10;99.90;;;;;;6216806;23;19915;-70
2022/07/15 07:47:39;;;;;;;;;;;15.10;99.90;;;;;;6216513;23;19970;-70
2022/07/15 07:50:06;;;;;;;;;;;15.20;99.90;;;;;;6216598;23;19951;-70
2022/07/15 07:52:31;;;;;;;;;;;15.30;99.90;;;;;;6216155;23;20348;-69
2022/07/15 07:54:57;;;;;;;;;;;15.40;99.90;;;;;;6216561;23;19986;-70
2022/07/15 07:57:22;;;;;;;;;;;15.50;99.90;;;;;;6189843;23;20344;-70
2022/07/15 07:59:48;;;;;;;;;;;15.60;99.90;;;;;;6216552;23;20240;-70
2022/07/15 08:02:13;;;;;;;;;;;15.70;99.90;;;;;;6216804;23;19970;-70
2022/07/15 08:04:40;;;;;;;;;;;15.80;99.90;;;;;;6216529;23;19916;-70
2022/07/15 08:07:24;;;;;;;;;;;15.70;99.90;;;;;;6215983;23;20277;-69
2022/07/15 08:09:49;;;;;;;;;;;15.80;99.90;;;;;;6189900;23;19923;-69
2022/07/15 08:12:15;;;;;;;;;;;15.70;99.90;;;;;;6189380;23;20249;-70
2022/07/15 08:14:41;;;;;;;;;;;15.70;99.90;;;;;;6188835;23;20334;-70
2022/07/15 08:17:07;;;;;;;;;;;15.70;99.90;;;;;;6189482;23;19916;-70
2022/07/15 08:19:32;;;;;;;;;;;15.70;99.90;;;;;;6216434;23;20005;-70
2022/07/15 08:21:58;;;;;;;;;;;15.80;99.90;;;;;;6216378;23;19977;-70
2022/07/15 08:24:24;;;;;;;;;;;15.70;99.90;;;;;;6216280;23;19916;-70
2022/07/15 08:26:49;;;;;;;;;;;15.90;99.90;;;;;;6216223;23;19977;-71
2022/07/15 08:29:15;;;;;;;;;;;16.00;99.90;;;;;;6189736;23;19915;-70
2022/07/15 08:31:40;;;;;;;;;;;16.00;99.90;;;;;;6189819;23;19919;-70
2022/07/15 08:34:07;;;;;;;;;;;16.00;99.90;;;;;;6216347;23;19987;-70
2022/07/15 08:36:33;;;;;;;;;;;16.00;99.90;;;;;;6189829;23;19987;-71
2022/07/15 08:38:59;;;;;;;;;;;16.10;99.90;;;;;;6189474;23;20360;-70
2022/07/15 08:41:24;;;;;;;;;;;16.20;99.90;;;;;;6216585;23;19958;-70
2022/07/15 08:43:50;;;;;;;;;;;16.20;99.90;;;;;;6216228;23;19920;-70
2022/07/15 08:46:16;;;;;;;;;;;16.30;99.90;;;;;;6216293;23;19959;-70
2022/07/15 08:48:46;;;;;;;;;;;16.30;99.90;;;;;;6217592;23;19919;-70
2022/07/15 08:51:12;;;;;;;;;;;15.20;99.90;;;;;;6218329;23;19916;-71
2022/07/15 08:53:38;;;;;;;;;;;16.50;99.90;;;;;;6191647;23;19923;-71
2022/07/15 08:56:03;;;;;;;;;;;16.50;99.90;;;;;;6218341;23;19923;-71
2022/07/15 08:58:29;;;;;;;;;;;16.50;99.90;;;;;;6218061;23;19923;-71
2022/07/15 09:00:55;;;;;;;;;;;16.50;99.90;;;;;;6191695;23;19923;-70
2022/07/15 09:03:20;;;;;;;;;;;16.40;99.90;;;;;;6191618;23;19942;-70
2022/07/15 09:05:46;;;;;;;;;;;16.30;99.90;;;;;;6191592;23;19919;-72
2022/07/15 09:08:16;;;;;;;;;;;16.30;99.90;;;;;;6217958;23;19923;-71
2022/07/15 09:10:47;;;;;;;;;;;16.30;99.90;;;;;;6218180;23;20261;-70
2022/07/15 09:13:26;;;;;;;;;;;16.20;99.90;;;;;;6218006;23;19995;-71
2022/07/15 09:15:52;;;;;;;;;;;16.30;99.90;;;;;;6218106;23;19920;-72
2022/07/15 09:18:22;;;;;;;;;;;16.30;99.90;;;;;;6217644;23;20313;-69
2022/07/15 09:20:50;;;;;;;;;;;16.40;99.90;;;;;;6217953;23;19955;-71
2022/07/15 09:23:20;;;;;;;;;;;16.40;99.90;;;;;;6217747;23;19916;-70
2022/07/15 09:25:50;;;;;;;;;;;16.50;99.90;;;;;;6217725;23;20253;-70
2022/07/15 09:28:15;;;;;;;;;;;16.60;99.90;;;;;;6217789;23;19999;-70
2022/07/15 09:33:43;;;;;;;;;;;16.60;99.90;;;;;;6217901;23;19970;-70
2022/07/15 09:36:14;;;;;;;;;;;16.70;99.90;;;;;;6218029;23;19917;-71
2022/07/15 09:38:41;;;;;;;;;;;16.70;99.90;;;;;;6217820;23;19915;-71
2022/07/15 09:41:33;;;;;;;;;;;16.80;99.90;;;;;;6217851;23;19923;-71
2022/07/15 09:44:06;;;;;;;;;;;16.80;99.90;;;;;;6162799;23;20249;-70
2022/07/15 09:46:44;;;;;;;;;;;16.80;99.90;;;;;;6191225;23;19994;-70
2022/07/15 09:49:10;;;;;;;;;;;16.90;99.90;;;;;;6217739;23;19923;-70
2022/07/15 09:52:02;;;;;;;;;;;16.90;99.90;;;;;;6217772;23;19920;-70
2022/07/15 09:54:30;;;;;;;;;;;16.90;99.90;;;;;;6213902;23;19916;-69
2022/07/15 09:56:57;;;;;;;;;;;17.00;99.90;;;;;;6217490;23;19916;-71
2022/07/15 09:59:23;;;;;;;;;;;17.00;99.90;;;;;;6217275;23;19947;-70
2022/07/15 10:01:49;;;;;;;;;;;17.20;99.90;;;;;;6217658;23;19970;-70
2022/07/15 10:04:16;;;;;;;;;;;17.30;99.90;;;;;;6191181;23;19916;-69
2022/07/15 10:06:42;;;;;;;;;;;17.40;99.90;;;;;;6217593;23;19920;-71
2022/07/15 10:09:08;;;;;;;;;;;17.50;99.90;;;;;;6190474;23;19915;-70
2022/07/15 10:11:37;;;;;;;;;;;17.50;99.90;;;;;;6217519;23;19916;-70
2022/07/15 10:14:22;;;;;;;;;;;17.60;99.90;;;;;;6217569;23;19969;-69
2022/07/15 10:16:50;;;;;;;;;;;17.70;99.90;;;;;;6217505;23;19916;-72
2022/07/15 10:19:34;;;;;;;;;;;17.70;99.90;;;;;;6217618;23;19916;-70
2022/07/15 10:22:02;;;;;;;;;;;17.70;99.90;;;;;;6217439;23;20326;-70
2022/07/15 10:24:31;;;;;;;;;;;17.70;99.90;;;;;;6217367;23;19915;-70
2022/07/15 10:27:12;;;;;;;;;;;17.70;99.90;;;;;;6217341;23;19920;-70
2022/07/15 10:29:38;;;;;;;;;;;17.70;99.90;;;;;;6217502;23;19923;-70
2022/07/15 10:32:04;;;;;;;;;;;17.60;99.90;;;;;;6190194;23;19916;-70
2022/07/15 10:34:31;;;;;;;;;;;17.60;99.90;;;;;;6217314;23;19923;-70
2022/07/15 10:36:58;;;;;;;;;;;17.60;99.90;;;;;;6217247;23;20038;-69
2022/07/15 10:39:43;;;;;;;;;;;17.60;99.90;;;;;;6217117;23;20292;-70
2022/07/15 10:42:09;;;;;;;;;;;17.40;99.90;;;;;;6215829;23;19915;-70
2022/07/15 10:44:36;;;;;;;;;;;17.30;99.90;;;;;;6217094;23;19954;-69
2022/07/15 10:47:11;;;;;;;;;;;17.10;99.90;;;;;;6190398;23;19966;-70
2022/07/15 10:49:37;;;;;;;;;;;17.10;99.90;;;;;;6217078;23;19924;-70
2022/07/15 10:52:13;;;;;;;;;;;17.00;99.90;;;;;;6217089;23;20289;-70
2022/07/15 10:54:41;;;;;;;;;;;16.90;99.90;;;;;;6216965;23;20345;-70
2022/07/15 10:57:06;;;;;;;;;;;16.80;99.90;;;;;;6216937;23;19922;-70
2022/07/15 10:59:46;;;;;;;;;;;16.90;99.90;;;;;;6217101;23;19991;-70
2022/07/15 11:02:13;;;;;;;;;;;16.90;99.90;;;;;;6217036;23;20251;-69
2022/07/15 11:04:39;;;;;;;;;;;16.90;99.90;;;;;;6217086;23;19923;-69
2022/07/15 11:07:06;;;;;;;;;;;17.00;99.90;;;;;;6217013;23;19915;-70
2022/07/15 11:09:51;;;;;;;;;;;17.00;99.90;;;;;;6216802;23;19924;-70
2022/07/15 11:12:43;;;;;;;;;;;17.00;99.90;;;;;;6216928;23;19915;-71
2022/07/15 11:15:13;;;;;;;;;;;17.10;99.90;;;;;;6217100;23;19915;-70
2022/07/15 11:17:42;;;;;;;;;;;17.10;99.90;;;;;;6216907;23;19947;-70
2022/07/15 11:20:08;;;;;;;;;;;17.10;99.90;;;;;;6216596;23;20325;-70
2022/07/15 11:22:35;;;;;;;;;;;17.20;99.90;;;;;;6190147;23;19947;-70
2022/07/15 11:25:00;;;;;;;;;;;17.20;99.90;;;;;;6216833;23;19999;-70
2022/07/15 11:27:26;;;;;;;;;;;17.20;99.90;;;;;;6216594;23;20329;-70
2022/07/15 11:29:59;;;;;;;;;;;17.20;99.90;;;;;;6216756;23;19915;-71
2022/07/15 11:32:25;;;;;;;;;;;17.30;99.90;;;;;;6216781;23;19922;-69
2022/07/15 11:34:52;;;;;;;;;;;16.60;99.90;;;;;;6216669;23;19916;-70
2022/07/15 11:37:18;;;;;;;;;;;17.30;99.90;;;;;;6189759;23;19916;-70
2022/07/15 11:40:04;;;;;;;;;;;17.30;99.90;;;;;;6189948;23;19916;-71
2022/07/15 11:45:15;;;;;;;;;;;17.30;99.90;;;;;;6216859;23;20046;-70
2022/07/15 11:47:50;;;;;;;;;;;17.30;99.90;;;;;;6216462;23;19959;-70
2022/07/15 11:50:16;;;;;;;;;;;16.90;99.90;;;;;;6216654;23;19923;-70
2022/07/15 11:52:41;;;;;;;;;;;17.40;99.90;;;;;;6216528;23;19919;-70
2022/07/15 11:55:07;;;;;;;;;;;17.40;99.90;;;;;;6190032;23;19958;-70
2022/07/15 11:57:34;;;;;;;;;;;17.40;99.90;;;;;;6189858;23;19915;-70
2022/07/15 11:59:59;;;;;;;;;;;17.40;99.90;;;;;;6189685;23;19923;-70
2022/07/15 12:02:26;;;;;;;;;;;17.30;99.90;;;;;;6216619;23;20249;-70
2022/07/15 12:05:00;;;;;;;;;;;17.30;99.90;;;;;;6215536;23;19920;-70
2022/07/15 12:07:49;;;;;;;;;;;17.30;99.90;;;;;;6216032;23;19959;-71
2022/07/15 12:10:15;;;;;;;;;;;17.30;99.90;;;;;;6192186;23;20291;-70
2022/07/15 12:12:55;;;;;;;;;;;17.20;99.90;;;;;;6216213;23;19943;-72
2022/07/15 12:15:21;;;;;;;;;;;17.30;99.90;;;;;;6216114;23;19916;-70
2022/07/15 12:17:47;;;;;;;;;;;17.10;99.90;;;;;;6189608;23;20295;-70
2022/07/15 12:20:13;;;;;;;;;;;17.00;99.90;;;;;;6216524;23;19950;-69
2022/07/15 12:22:58;;;;;;;;;;;17.00;99.90;;;;;;6189379;23;19923;-71
2022/07/15 12:25:24;;;;;;;;;;;17.00;99.90;;;;;;6215951;23;19923;-70
2022/07/15 12:27:49;;;;;;;;;;;16.90;99.90;;;;;;6189519;23;19915;-70
2022/07/15 12:30:15;;;;;;;;;;;16.90;99.90;;;;;;6215927;23;20269;-69
2022/07/15 12:32:41;;;;;;;;;;;16.90;99.90;;;;;;6216062;23;19959;-72
2022/07/15 12:35:08;;;;;;;;;;;16.90;99.90;;;;;;6216212;23;19916;-70
2022/07/15 12:37:34;;;;;;;;;;;16.80;99.90;;;;;;6215740;23;20330;-70
2022/07/15 12:39:59;;;;;;;;;;;16.90;99.90;;;;;;6216021;23;19916;-69
2022/07/15 12:42:47;;;;;;;;;;;16.90;99.90;;;;;;6216353;23;19916;-70
2022/07/15 12:45:18;;;;;;;;;;;16.90;99.90;;;;;;6216234;23;19916;-71
2022/07/15 12:48:03;;;;;;;;;;;17.40;99.90;;;;;;6216034;23;19945;-71
2022/07/15 12:50:31;;;;;;;;;;;17.00;99.90;;;;;;6216539;23;19990;-70
2022/07/15 12:52:57;;;;;;;;;;;17.00;99.90;;;;;;6216039;23;19994;-72
2022/07/15 12:55:28;;;;;;;;;;;17.10;99.90;;;;;;6189492;23;19915;-71
2022/07/15 12:58:08;;;;;;;;;;;17.20;99.90;;;;;;6189059;23;19922;-71
2022/07/15 13:00:34;;;;;;;;;;;17.20;99.90;;;;;;6216066;23;20321;-70
2022/07/15 13:03:11;;;;;;;;;;;17.20;99.90;;;;;;6216102;23;19920;-70
2022/07/15 13:05:38;;;;;;;;;;;17.20;99.90;;;;;;6215783;23;20391;-71
2022/07/15 13:08:12;;;;;;;;;;;17.20;99.90;;;;;;6215566;23;19916;-70
2022/07/15 13:10:39;;;;;;;;;;;17.10;99.90;;;;;;6215588;23;20257;-72
2022/07/15 13:13:05;;;;;;;;;;;17.10;99.90;;;;;;6215449;23;19922;-71
2022/07/15 13:15:32;;;;;;;;;;;17.00;99.90;;;;;;6189771;23;19916;-70
2022/07/15 13:17:57;;;;;;;;;;;17.00;99.90;;;;;;6215952;23;19955;-70
2022/07/15 13:20:23;;;;;;;;;;;17.00;99.90;;;;;;6215946;23;19916;-70
2022/07/15 13:22:49;;;;;;;;;;;16.90;99.90;;;;;;6215931;23;19955;-70
2022/07/15 13:25:15;;;;;;;;;;;16.90;99.90;;;;;;6215895;23;20334;-70
2022/07/15 13:27:42;;;;;;;;;;;16.80;99.90;;;;;;6189251;23;19927;-70
2022/07/15 13:30:08;;;;;;;;;;;16.80;99.90;;;;;;6215862;23;20333;-70
2022/07/15 13:32:33;;;;;;;;;;;16.70;99.90;;;;;;6215921;23;19963;-70
2022/07/15 13:35:00;;;;;;;;;;;16.70;99.90;;;;;;6216976;23;19916;-70
2022/07/15 13:37:26;;;;;;;;;;;16.70;99.90;;;;;;6217674;23;19994;-70
2022/07/15 13:39:52;;;;;;;;;;;16.60;99.90;;;;;;6217573;23;19926;-72
2022/07/15 13:42:18;;;;;;;;;;;16.60;99.90;;;;;;6191118;23;20283;-69
2022/07/15 13:44:44;;;;;;;;;;;16.50;99.90;;;;;;6216918;23;19916;-72
2022/07/15 13:47:10;;;;;;;;;;;16.50;99.90;;;;;;6217432;23;19916;-69
2022/07/15 13:52:20;;;;;;;;;;;16.60;99.90;;;;;;6217478;23;19919;-71
2022/07/15 13:54:45;;;;;;;;;;;16.60;99.90;;;;;;6190324;23;19922;-70
2022/07/15 13:57:11;;;;;;;;;;;16.50;99.90;;;;;;6217410;23;20302;-70
2022/07/15 13:59:37;;;;;;;;;;;16.60;99.90;;;;;;6191049;23;20242;-71
2022/07/15 14:02:05;;;;;;;;;;;16.60;99.90;;;;;;6217837;23;19994;-70
2022/07/15 14:04:31;;;;;;;;;;;16.70;99.90;;;;;;6217409;23;19915;-71
2022/07/15 14:06:57;;;;;;;;;;;16.70;99.90;;;;;;6217300;23;20336;-71
2022/07/15 14:09:22;;;;;;;;;;;16.80;99.90;;;;;;6217135;23;19991;-70
2022/07/15 14:11:48;;;;;;;;;;;16.80;99.90;;;;;;6217381;23;19939;-70
2022/07/15 14:14:14;;;;;;;;;;;16.80;99.90;;;;;;6190580;23;20245;-70
2022/07/15 14:16:40;;;;;;;;;;;16.90;99.90;;;;;;6190791;23;19922;-70
2022/07/15 14:19:06;;;;;;;;;;;16.90;99.90;;;;;;6217299;23;19955;-70
2022/07/15 14:21:31;;;;;;;;;;;16.60;99.90;;;;;;6217254;23;19942;-70
2022/07/15 14:23:57;;;;;;;;;;;17.00;99.90;;;;;;6165451;23;19923;-70
2022/07/15 14:26:23;;;;;;;;;;;17.00;99.90;;;;;;6216956;23;19926;-70